Gleason, Wisconsin
Current Conditions -  °F | °C
As of 2:15 AM on Friday 24 Oct 2014 (Local Time) from KRRL Reporting Station
Haze Haze  
Wind Chill: 42°   Ceiling: 300
Heat Index: 45°   Visibility: 2mi
Dew Point: 45°   Wind: 6mph
Humidity: 100%   Direction: 280°W
Pressure: 30.02"   Gusts: NA
Location:  45.31°N, 89.5°W
Report Text: KRRL 240715Z AUTO 28005KT 2SM BR OVC003 07/07 A3002 RMK AO2 T00720072
Loading
Personal Weather Stations






























Interactive Weather Map
Tropical Storm Tracking
New forecast layout! Learn more

10-Day Weather Forecast

Advertisements
Track Severe Weather on mobile